sensor_id;sensor_type;location;lat;lon;timestamp;noise_LAeq;noise_LA_min;noise_LA_max;noise_LA01;noise_LA95
67398;Laerm;57728;50.448;18.824;2023-07-28T00:00:38;34.41;32.63;46.21;;
67398;Laerm;57728;50.448;18.824;2023-07-28T00:02:39;34.47;32.99;45.01;;
67398;Laerm;57728;50.448;18.824;2023-07-28T00:04:40;34.17;32.91;46.43;;
67398;Laerm;57728;50.448;18.824;2023-07-28T00:06:42;34.01;32.82;38.17;;
67398;Laerm;57728;50.448;18.824;2023-07-28T00:08:43;34.07;32.90;38.20;;
67398;Laerm;57728;50.448;18.824;2023-07-28T00:10:44;34.08;32.94;41.41;;
67398;Laerm;57728;50.448;18.824;2023-07-28T00:12:46;34.40;32.58;47.57;;
67398;Laerm;57728;50.448;18.824;2023-07-28T00:14:47;34.11;32.67;44.81;;
67398;Laerm;57728;50.448;18.824;2023-07-28T00:16:48;34.19;32.87;45.26;;
67398;Laerm;57728;50.448;18.824;2023-07-28T00:18:50;34.45;32.82;50.78;;
67398;Laerm;57728;50.448;18.824;2023-07-28T00:20:51;34.35;32.99;43.06;;
67398;Laerm;57728;50.448;18.824;2023-07-28T00:22:52;34.18;32.94;39.56;;
67398;Laerm;57728;50.448;18.824;2023-07-28T00:24:54;34.51;32.73;47.92;;
67398;Laerm;57728;50.448;18.824;2023-07-28T00:26:55;35.09;32.90;55.23;;
67398;Laerm;57728;50.448;18.824;2023-07-28T00:28:56;34.52;32.89;46.13;;
67398;Laerm;57728;50.448;18.824;2023-07-28T00:31:00;34.29;32.89;43.48;;
67398;Laerm;57728;50.448;18.824;2023-07-28T00:33:01;34.18;32.67;43.20;;
67398;Laerm;57728;50.448;18.824;2023-07-28T00:35:03;34.17;32.76;44.76;;
67398;Laerm;57728;50.448;18.824;2023-07-28T00:37:05;34.00;32.59;40.10;;
67398;Laerm;57728;50.448;18.824;2023-07-28T00:39:07;33.95;32.42;43.08;;
67398;Laerm;57728;50.448;18.824;2023-07-28T00:41:08;34.02;32.72;41.04;;
67398;Laerm;57728;50.448;18.824;2023-07-28T00:43:10;34.11;32.72;41.59;;
67398;Laerm;57728;50.448;18.824;2023-07-28T00:45:11;34.05;32.39;41.37;;
67398;Laerm;57728;50.448;18.824;2023-07-28T00:47:13;34.22;32.72;48.31;;
67398;Laerm;57728;50.448;18.824;2023-07-28T00:49:15;35.09;32.76;56.69;;
67398;Laerm;57728;50.448;18.824;2023-07-28T00:51:16;34.04;32.76;44.50;;
67398;Laerm;57728;50.448;18.824;2023-07-28T00:53:19;34.20;32.71;47.36;;
67398;Laerm;57728;50.448;18.824;2023-07-28T00:55:22;34.37;32.51;47.58;;
67398;Laerm;57728;50.448;18.824;2023-07-28T00:57:24;34.13;32.75;42.60;;
67398;Laerm;57728;50.448;18.824;2023-07-28T00:59:26;34.23;32.84;46.50;;
67398;Laerm;57728;50.448;18.824;2023-07-28T01:01:28;34.20;32.76;44.56;;
67398;Laerm;57728;50.448;18.824;2023-07-28T01:03:31;34.09;32.55;41.43;;
67398;Laerm;57728;50.448;18.824;2023-07-28T01:08:16;35.10;32.74;55.79;;
67398;Laerm;57728;50.448;18.824;2023-07-28T01:10:38;35.01;32.60;55.35;;
67398;Laerm;57728;50.448;18.824;2023-07-28T01:12:40;35.10;32.93;49.54;;
67398;Laerm;57728;50.448;18.824;2023-07-28T01:14:44;34.14;32.61;42.61;;
67398;Laerm;57728;50.448;18.824;2023-07-28T01:16:45;35.07;33.01;50.80;;
67398;Laerm;57728;50.448;18.824;2023-07-28T01:18:47;36.32;32.64;52.34;;
67398;Laerm;57728;50.448;18.824;2023-07-28T01:20:52;34.09;32.85;42.45;;
67398;Laerm;57728;50.448;18.824;2023-07-28T01:23:16;34.09;32.93;37.76;;
67398;Laerm;57728;50.448;18.824;2023-07-28T01:27:56;35.48;32.63;50.55;;
67398;Laerm;57728;50.448;18.824;2023-07-28T01:29:58;35.01;32.60;53.38;;
67398;Laerm;57728;50.448;18.824;2023-07-28T01:32:00;34.83;32.73;52.05;;
67398;Laerm;57728;50.448;18.824;2023-07-28T01:34:01;34.98;32.76;53.93;;
67398;Laerm;57728;50.448;18.824;2023-07-28T01:36:03;34.25;32.82;44.98;;
67398;Laerm;57728;50.448;18.824;2023-07-28T01:38:05;34.33;32.87;42.56;;
67398;Laerm;57728;50.448;18.824;2023-07-28T01:40:07;34.32;33.00;45.70;;
67398;Laerm;57728;50.448;18.824;2023-07-28T01:42:09;34.83;33.01;48.57;;
67398;Laerm;57728;50.448;18.824;2023-07-28T01:44:10;34.09;32.63;41.57;;
67398;Laerm;57728;50.448;18.824;2023-07-28T01:46:12;34.13;32.95;45.02;;
67398;Laerm;57728;50.448;18.824;2023-07-28T01:48:14;34.42;32.89;47.04;;
67398;Laerm;57728;50.448;18.824;2023-07-28T01:50:15;34.06;32.86;35.69;;
67398;Laerm;57728;50.448;18.824;2023-07-28T01:52:16;34.47;32.63;50.81;;
67398;Laerm;57728;50.448;18.824;2023-07-28T01:54:18;34.10;32.64;39.27;;
67398;Laerm;57728;50.448;18.824;2023-07-28T01:56:19;34.16;32.79;38.12;;
67398;Laerm;57728;50.448;18.824;2023-07-28T01:58:21;34.38;32.91;43.13;;
67398;Laerm;57728;50.448;18.824;2023-07-28T02:00:22;34.70;32.68;46.98;;
67398;Laerm;57728;50.448;18.824;2023-07-28T02:02:23;34.33;32.86;45.67;;
67398;Laerm;57728;50.448;18.824;2023-07-28T02:04:25;34.36;32.90;44.73;;
67398;Laerm;57728;50.448;18.824;2023-07-28T02:06:26;34.28;32.66;45.84;;
67398;Laerm;57728;50.448;18.824;2023-07-28T02:08:28;34.55;33.02;42.79;;
67398;Laerm;57728;50.448;18.824;2023-07-28T02:10:31;34.25;32.87;41.28;;
67398;Laerm;57728;50.448;18.824;2023-07-28T02:12:32;34.80;32.97;42.07;;
67398;Laerm;57728;50.448;18.824;2023-07-28T02:14:33;34.25;32.85;39.70;;
67398;Laerm;57728;50.448;18.824;2023-07-28T02:16:35;34.09;32.87;39.47;;
67398;Laerm;57728;50.448;18.824;2023-07-28T02:18:36;34.59;32.83;48.45;;
67398;Laerm;57728;50.448;18.824;2023-07-28T02:20:37;34.23;32.54;38.19;;
67398;Laerm;57728;50.448;18.824;2023-07-28T02:22:42;34.06;32.66;39.83;;
67398;Laerm;57728;50.448;18.824;2023-07-28T02:24:43;34.20;32.89;45.18;;
67398;Laerm;57728;50.448;18.824;2023-07-28T02:26:44;34.11;32.89;42.54;;
67398;Laerm;57728;50.448;18.824;2023-07-28T02:28:46;34.07;32.75;40.63;;
67398;Laerm;57728;50.448;18.824;2023-07-28T02:30:49;34.09;32.95;40.17;;
67398;Laerm;57728;50.448;18.824;2023-07-28T02:32:50;34.31;32.61;39.56;;
67398;Laerm;57728;50.448;18.824;2023-07-28T02:34:52;34.04;32.93;35.49;;
67398;Laerm;57728;50.448;18.824;2023-07-28T02:36:53;34.60;32.80;49.78;;
67398;Laerm;57728;50.448;18.824;2023-07-28T02:38:54;34.03;32.91;40.24;;
67398;Laerm;57728;50.448;18.824;2023-07-28T02:40:56;34.03;32.84;35.80;;
67398;Laerm;57728;50.448;18.824;2023-07-28T02:42:57;34.04;32.75;35.67;;
67398;Laerm;57728;50.448;18.824;2023-07-28T02:44:59;34.24;32.90;37.89;;
67398;Laerm;57728;50.448;18.824;2023-07-28T02:47:01;34.12;32.76;39.83;;
67398;Laerm;57728;50.448;18.824;2023-07-28T02:49:03;34.10;32.88;37.51;;
67398;Laerm;57728;50.448;18.824;2023-07-28T02:51:05;34.04;32.70;35.85;;
67398;Laerm;57728;50.448;18.824;2023-07-28T02:53:07;34.07;32.67;38.64;;
67398;Laerm;57728;50.448;18.824;2023-07-28T02:55:08;34.17;32.69;44.34;;
67398;Laerm;57728;50.448;18.824;2023-07-28T02:57:09;34.14;32.89;42.83;;
67398;Laerm;57728;50.448;18.824;2023-07-28T02:59:14;34.03;32.83;37.15;;
67398;Laerm;57728;50.448;18.824;2023-07-28T03:01:15;34.03;32.78;36.50;;
67398;Laerm;57728;50.448;18.824;2023-07-28T03:03:16;34.02;32.81;35.96;;
67398;Laerm;57728;50.448;18.824;2023-07-28T03:05:18;34.03;32.85;35.61;;
67398;Laerm;57728;50.448;18.824;2023-07-28T03:07:51;34.15;32.92;36.71;;
67398;Laerm;57728;50.448;18.824;2023-07-28T03:09:52;34.12;32.79;36.31;;
67398;Laerm;57728;50.448;18.824;2023-07-28T03:11:54;34.09;32.80;37.84;;
67398;Laerm;57728;50.448;18.824;2023-07-28T03:13:55;34.10;32.84;37.06;;
67398;Laerm;57728;50.448;18.824;2023-07-28T03:15:56;34.09;32.87;37.27;;
67398;Laerm;57728;50.448;18.824;2023-07-28T03:17:59;34.16;32.95;38.47;;
67398;Laerm;57728;50.448;18.824;2023-07-28T03:20:01;34.24;32.90;40.51;;
67398;Laerm;57728;50.448;18.824;2023-07-28T03:22:02;34.16;32.90;38.26;;
67398;Laerm;57728;50.448;18.824;2023-07-28T03:24:04;34.11;32.93;37.49;;
67398;Laerm;57728;50.448;18.824;2023-07-28T03:26:05;34.16;32.81;38.90;;
67398;Laerm;57728;50.448;18.824;2023-07-28T03:28:07;34.32;32.99;46.76;;
67398;Laerm;57728;50.448;18.824;2023-07-28T03:30:09;34.19;32.67;38.08;;
67398;Laerm;57728;50.448;18.824;2023-07-28T03:32:11;35.15;32.96;55.75;;
67398;Laerm;57728;50.448;18.824;2023-07-28T03:34:12;34.72;32.88;46.93;;
67398;Laerm;57728;50.448;18.824;2023-07-28T03:36:18;34.54;32.85;45.51;;
67398;Laerm;57728;50.448;18.824;2023-07-28T03:38:20;36.20;33.15;53.79;;
67398;Laerm;57728;50.448;18.824;2023-07-28T03:40:21;36.81;33.00;58.84;;
67398;Laerm;57728;50.448;18.824;2023-07-28T03:42:27;35.94;33.28;52.20;;
67398;Laerm;57728;50.448;18.824;2023-07-28T03:44:28;34.49;32.93;42.12;;
67398;Laerm;57728;50.448;18.824;2023-07-28T03:46:29;34.46;33.05;45.39;;
67398;Laerm;57728;50.448;18.824;2023-07-28T03:48:31;34.86;32.99;52.06;;
67398;Laerm;57728;50.448;18.824;2023-07-28T03:50:33;35.05;33.05;48.32;;
67398;Laerm;57728;50.448;18.824;2023-07-28T03:52:34;35.16;33.13;49.52;;
67398;Laerm;57728;50.448;18.824;2023-07-28T03:54:36;34.65;33.09;45.20;;
67398;Laerm;57728;50.448;18.824;2023-07-28T03:56:37;34.60;33.05;47.33;;
67398;Laerm;57728;50.448;18.824;2023-07-28T03:58:38;34.64;32.90;51.12;;
67398;Laerm;57728;50.448;18.824;2023-07-28T04:00:40;35.06;32.80;44.17;;
67398;Laerm;57728;50.448;18.824;2023-07-28T04:02:41;34.35;32.71;47.58;;
67398;Laerm;57728;50.448;18.824;2023-07-28T04:04:42;35.06;32.99;50.28;;
67398;Laerm;57728;50.448;18.824;2023-07-28T04:06:48;34.70;32.81;48.12;;
67398;Laerm;57728;50.448;18.824;2023-07-28T04:08:53;34.33;32.91;46.34;;
67398;Laerm;57728;50.448;18.824;2023-07-28T04:10:54;34.66;32.85;45.47;;
67398;Laerm;57728;50.448;18.824;2023-07-28T04:12:56;35.27;32.93;42.96;;
67398;Laerm;57728;50.448;18.824;2023-07-28T04:14:57;35.36;33.07;47.28;;
67398;Laerm;57728;50.448;18.824;2023-07-28T04:16:58;34.97;32.98;46.99;;
67398;Laerm;57728;50.448;18.824;2023-07-28T04:19:00;34.55;33.15;48.03;;
67398;Laerm;57728;50.448;18.824;2023-07-28T04:21:01;34.57;32.96;44.91;;
67398;Laerm;57728;50.448;18.824;2023-07-28T04:23:02;34.42;33.00;46.54;;
67398;Laerm;57728;50.448;18.824;2023-07-28T04:25:09;34.64;33.01;39.94;;
67398;Laerm;57728;50.448;18.824;2023-07-28T04:27:14;36.14;33.04;46.20;;
67398;Laerm;57728;50.448;18.824;2023-07-28T04:29:15;34.52;33.10;39.66;;
67398;Laerm;57728;50.448;18.824;2023-07-28T04:31:17;34.37;33.04;40.03;;
67398;Laerm;57728;50.448;18.824;2023-07-28T04:33:40;34.69;33.00;45.75;;
67398;Laerm;57728;50.448;18.824;2023-07-28T04:35:42;34.47;33.13;43.78;;
67398;Laerm;57728;50.448;18.824;2023-07-28T04:37:50;36.00;33.22;43.35;;
67398;Laerm;57728;50.448;18.824;2023-07-28T04:40:00;34.44;32.88;41.50;;
67398;Laerm;57728;50.448;18.824;2023-07-28T04:42:07;35.41;33.08;52.97;;
67398;Laerm;57728;50.448;18.824;2023-07-28T04:44:12;34.87;33.28;51.23;;
67398;Laerm;57728;50.448;18.824;2023-07-28T04:46:15;36.43;33.17;45.87;;
67398;Laerm;57728;50.448;18.824;2023-07-28T04:48:21;35.22;33.21;51.48;;
67398;Laerm;57728;50.448;18.824;2023-07-28T04:50:23;34.71;33.03;45.40;;
67398;Laerm;57728;50.448;18.824;2023-07-28T04:53:03;34.70;33.14;43.06;;
67398;Laerm;57728;50.448;18.824;2023-07-28T04:55:10;34.80;32.79;42.32;;
67398;Laerm;57728;50.448;18.824;2023-07-28T04:57:12;36.38;33.24;50.85;;
67398;Laerm;57728;50.448;18.824;2023-07-28T04:59:13;35.54;33.06;48.38;;
67398;Laerm;57728;50.448;18.824;2023-07-28T05:01:14;34.85;33.26;43.71;;
67398;Laerm;57728;50.448;18.824;2023-07-28T05:03:20;35.27;33.44;37.47;;
67398;Laerm;57728;50.448;18.824;2023-07-28T05:05:29;36.03;34.03;47.84;;
67398;Laerm;57728;50.448;18.824;2023-07-28T05:07:31;36.54;33.62;53.17;;
67398;Laerm;57728;50.448;18.824;2023-07-28T05:09:33;35.92;33.43;48.25;;
67398;Laerm;57728;50.448;18.824;2023-07-28T05:11:34;35.15;33.25;45.05;;
67398;Laerm;57728;50.448;18.824;2023-07-28T05:13:35;36.57;33.70;54.10;;
67398;Laerm;57728;50.448;18.824;2023-07-28T05:15:37;35.46;33.65;46.14;;
67398;Laerm;57728;50.448;18.824;2023-07-28T05:17:41;37.13;33.21;62.52;;
67398;Laerm;57728;50.448;18.824;2023-07-28T05:19:58;36.06;33.32;49.80;;
67398;Laerm;57728;50.448;18.824;2023-07-28T05:22:26;35.57;33.50;49.81;;
67398;Laerm;57728;50.448;18.824;2023-07-28T05:24:30;36.30;33.72;44.04;;
67398;Laerm;57728;50.448;18.824;2023-07-28T05:26:31;36.14;33.73;47.63;;
67398;Laerm;57728;50.448;18.824;2023-07-28T05:28:34;37.40;33.63;47.54;;
67398;Laerm;57728;50.448;18.824;2023-07-28T05:30:36;36.39;34.29;48.29;;
67398;Laerm;57728;50.448;18.824;2023-07-28T05:32:37;38.90;34.36;60.29;;
67398;Laerm;57728;50.448;18.824;2023-07-28T05:34:59;38.86;33.65;45.10;;
67398;Laerm;57728;50.448;18.824;2023-07-28T05:37:00;39.60;35.25;54.55;;
67398;Laerm;57728;50.448;18.824;2023-07-28T05:39:05;40.74;35.61;49.05;;
67398;Laerm;57728;50.448;18.824;2023-07-28T05:41:14;41.51;35.73;59.78;;
67398;Laerm;57728;50.448;18.824;2023-07-28T05:43:18;38.42;34.54;52.56;;
67398;Laerm;57728;50.448;18.824;2023-07-28T05:45:19;42.45;34.42;52.29;;
67398;Laerm;57728;50.448;18.824;2023-07-28T05:47:21;38.38;34.59;49.94;;
67398;Laerm;57728;50.448;18.824;2023-07-28T05:49:22;40.05;34.48;46.10;;
67398;Laerm;57728;50.448;18.824;2023-07-28T05:51:23;41.80;35.24;62.37;;
67398;Laerm;57728;50.448;18.824;2023-07-28T05:53:25;39.67;34.10;53.24;;
67398;Laerm;57728;50.448;18.824;2023-07-28T05:55:31;38.12;34.37;44.62;;
67398;Laerm;57728;50.448;18.824;2023-07-28T05:57:32;39.41;34.11;50.98;;
67398;Laerm;57728;50.448;18.824;2023-07-28T05:59:38;40.55;34.99;47.50;;
67398;Laerm;57728;50.448;18.824;2023-07-28T06:01:39;40.64;35.56;53.99;;
67398;Laerm;57728;50.448;18.824;2023-07-28T06:04:04;39.51;34.80;57.01;;
67398;Laerm;57728;50.448;18.824;2023-07-28T06:06:08;39.96;34.70;61.60;;
67398;Laerm;57728;50.448;18.824;2023-07-28T06:08:09;40.27;33.93;56.99;;
67398;Laerm;57728;50.448;18.824;2023-07-28T06:10:10;36.48;33.56;52.61;;
67398;Laerm;57728;50.448;18.824;2023-07-28T06:12:12;35.01;33.44;44.97;;
67398;Laerm;57728;50.448;18.824;2023-07-28T06:14:14;35.36;33.40;48.60;;
67398;Laerm;57728;50.448;18.824;2023-07-28T06:16:16;35.73;33.60;43.39;;
67398;Laerm;57728;50.448;18.824;2023-07-28T06:18:18;35.13;33.13;46.08;;
67398;Laerm;57728;50.448;18.824;2023-07-28T06:20:23;36.24;33.04;60.41;;
67398;Laerm;57728;50.448;18.824;2023-07-28T06:22:25;35.94;33.51;45.03;;
67398;Laerm;57728;50.448;18.824;2023-07-28T06:24:27;39.12;35.39;52.64;;
67398;Laerm;57728;50.448;18.824;2023-07-28T06:26:28;39.39;35.68;51.57;;
67398;Laerm;57728;50.448;18.824;2023-07-28T06:28:29;39.35;35.85;56.14;;
67398;Laerm;57728;50.448;18.824;2023-07-28T06:30:31;40.53;34.93;50.72;;
67398;Laerm;57728;50.448;18.824;2023-07-28T06:32:32;37.21;34.10;54.22;;
67398;Laerm;57728;50.448;18.824;2023-07-28T06:34:34;36.88;34.00;43.05;;
67398;Laerm;57728;50.448;18.824;2023-07-28T06:36:35;35.42;33.61;42.28;;
67398;Laerm;57728;50.448;18.824;2023-07-28T06:38:37;36.25;33.44;41.24;;
67398;Laerm;57728;50.448;18.824;2023-07-28T06:40:39;36.80;33.33;45.46;;
67398;Laerm;57728;50.448;18.824;2023-07-28T06:42:41;37.93;33.33;45.13;;
67398;Laerm;57728;50.448;18.824;2023-07-28T06:44:43;38.12;33.26;45.25;;
67398;Laerm;57728;50.448;18.824;2023-07-28T06:46:44;39.94;33.63;49.06;;
67398;Laerm;57728;50.448;18.824;2023-07-28T06:48:46;37.56;33.46;48.56;;
67398;Laerm;57728;50.448;18.824;2023-07-28T06:50:50;37.36;33.37;54.18;;
67398;Laerm;57728;50.448;18.824;2023-07-28T06:52:51;35.58;33.15;51.98;;
67398;Laerm;57728;50.448;18.824;2023-07-28T06:54:57;35.38;33.49;50.49;;
67398;Laerm;57728;50.448;18.824;2023-07-28T06:56:58;35.48;33.07;54.26;;
67398;Laerm;57728;50.448;18.824;2023-07-28T06:58:59;34.76;33.25;45.57;;
67398;Laerm;57728;50.448;18.824;2023-07-28T07:01:01;35.27;33.29;48.19;;
67398;Laerm;57728;50.448;18.824;2023-07-28T07:03:03;36.80;33.63;53.76;;
67398;Laerm;57728;50.448;18.824;2023-07-28T07:05:04;35.24;33.52;51.58;;
67398;Laerm;57728;50.448;18.824;2023-07-28T07:07:06;36.18;33.26;52.62;;
67398;Laerm;57728;50.448;18.824;2023-07-28T07:09:07;36.39;33.15;54.12;;
67398;Laerm;57728;50.448;18.824;2023-07-28T07:11:09;36.29;33.29;51.04;;
67398;Laerm;57728;50.448;18.824;2023-07-28T07:13:11;38.10;33.36;63.07;;
67398;Laerm;57728;50.448;18.824;2023-07-28T07:15:12;35.67;33.23;53.36;;
67398;Laerm;57728;50.448;18.824;2023-07-28T07:17:13;36.19;33.47;49.92;;
67398;Laerm;57728;50.448;18.824;2023-07-28T07:19:15;35.25;33.25;46.56;;
67398;Laerm;57728;50.448;18.824;2023-07-28T07:21:17;35.63;33.24;48.59;;
67398;Laerm;57728;50.448;18.824;2023-07-28T07:23:18;35.08;33.35;46.91;;
67398;Laerm;57728;50.448;18.824;2023-07-28T07:25:20;36.37;33.15;50.87;;
67398;Laerm;57728;50.448;18.824;2023-07-28T07:27:21;36.21;33.48;60.50;;
67398;Laerm;57728;50.448;18.824;2023-07-28T07:29:22;37.41;33.35;55.20;;
67398;Laerm;57728;50.448;18.824;2023-07-28T07:31:24;36.33;33.61;53.48;;
67398;Laerm;57728;50.448;18.824;2023-07-28T07:33:25;36.29;33.48;54.47;;
67398;Laerm;57728;50.448;18.824;2023-07-28T07:35:26;37.34;33.76;50.93;;
67398;Laerm;57728;50.448;18.824;2023-07-28T07:37:28;37.10;33.34;53.28;;
67398;Laerm;57728;50.448;18.824;2023-07-28T07:39:29;43.23;34.27;63.36;;
67398;Laerm;57728;50.448;18.824;2023-07-28T07:41:30;40.92;33.93;53.06;;
67398;Laerm;57728;50.448;18.824;2023-07-28T07:43:32;42.28;34.12;54.90;;
67398;Laerm;57728;50.448;18.824;2023-07-28T07:45:34;40.24;36.51;49.50;;
67398;Laerm;57728;50.448;18.824;2023-07-28T07:47:35;43.61;36.74;51.16;;
67398;Laerm;57728;50.448;18.824;2023-07-28T07:49:37;40.41;36.57;49.32;;
67398;Laerm;57728;50.448;18.824;2023-07-28T07:51:38;39.76;36.44;61.59;;
67398;Laerm;57728;50.448;18.824;2023-07-28T07:53:39;39.33;36.57;50.92;;
67398;Laerm;57728;50.448;18.824;2023-07-28T07:55:41;42.07;33.31;52.31;;
67398;Laerm;57728;50.448;18.824;2023-07-28T07:57:42;35.44;33.36;46.61;;
67398;Laerm;57728;50.448;18.824;2023-07-28T07:59:44;34.79;33.25;45.74;;
67398;Laerm;57728;50.448;18.824;2023-07-28T08:01:46;35.80;33.41;54.78;;
67398;Laerm;57728;50.448;18.824;2023-07-28T08:03:47;35.70;32.89;51.56;;
67398;Laerm;57728;50.448;18.824;2023-07-28T08:05:48;36.07;33.24;52.90;;
67398;Laerm;57728;50.448;18.824;2023-07-28T08:07:50;38.61;33.14;49.59;;
67398;Laerm;57728;50.448;18.824;2023-07-28T08:09:52;36.01;33.34;50.64;;
67398;Laerm;57728;50.448;18.824;2023-07-28T08:11:54;36.42;33.25;49.26;;
67398;Laerm;57728;50.448;18.824;2023-07-28T08:13:56;36.58;33.46;48.82;;
67398;Laerm;57728;50.448;18.824;2023-07-28T08:15:57;37.47;33.42;48.71;;
67398;Laerm;57728;50.448;18.824;2023-07-28T08:17:58;36.44;33.05;49.58;;
67398;Laerm;57728;50.448;18.824;2023-07-28T08:20:00;35.50;33.32;42.99;;
67398;Laerm;57728;50.448;18.824;2023-07-28T08:22:02;34.89;33.05;41.90;;
67398;Laerm;57728;50.448;18.824;2023-07-28T08:24:06;34.81;33.11;45.86;;
67398;Laerm;57728;50.448;18.824;2023-07-28T08:26:08;35.02;32.98;46.15;;
67398;Laerm;57728;50.448;18.824;2023-07-28T08:28:09;35.07;33.17;52.36;;
67398;Laerm;57728;50.448;18.824;2023-07-28T08:30:11;34.69;33.11;47.46;;
67398;Laerm;57728;50.448;18.824;2023-07-28T08:32:13;35.23;33.21;49.30;;
67398;Laerm;57728;50.448;18.824;2023-07-28T08:34:14;36.20;33.12;51.26;;
67398;Laerm;57728;50.448;18.824;2023-07-28T08:36:17;35.91;33.32;51.03;;
67398;Laerm;57728;50.448;18.824;2023-07-28T08:38:18;34.97;33.00;48.53;;
67398;Laerm;57728;50.448;18.824;2023-07-28T08:40:19;36.03;33.24;54.69;;
67398;Laerm;57728;50.448;18.824;2023-07-28T08:42:21;36.88;33.04;50.30;;
67398;Laerm;57728;50.448;18.824;2023-07-28T08:44:24;34.69;33.33;44.44;;
67398;Laerm;57728;50.448;18.824;2023-07-28T08:46:25;36.43;33.27;56.65;;
67398;Laerm;57728;50.448;18.824;2023-07-28T08:48:27;39.18;33.53;61.18;;
67398;Laerm;57728;50.448;18.824;2023-07-28T08:50:28;37.81;33.76;53.61;;
67398;Laerm;57728;50.448;18.824;2023-07-28T08:52:30;39.78;33.52;64.98;;
67398;Laerm;57728;50.448;18.824;2023-07-28T08:54:31;35.79;33.25;52.14;;
67398;Laerm;57728;50.448;18.824;2023-07-28T08:56:33;35.82;33.12;48.57;;
67398;Laerm;57728;50.448;18.824;2023-07-28T08:58:34;36.96;33.42;54.16;;
67398;Laerm;57728;50.448;18.824;2023-07-28T09:00:36;38.93;34.15;53.38;;
67398;Laerm;57728;50.448;18.824;2023-07-28T09:02:41;37.59;33.40;57.85;;
67398;Laerm;57728;50.448;18.824;2023-07-28T09:04:47;38.16;33.29;63.46;;
67398;Laerm;57728;50.448;18.824;2023-07-28T09:06:50;35.25;33.42;44.81;;
67398;Laerm;57728;50.448;18.824;2023-07-28T09:08:52;36.37;33.45;55.07;;
67398;Laerm;57728;50.448;18.824;2023-07-28T09:10:53;35.98;33.22;51.53;;
67398;Laerm;57728;50.448;18.824;2023-07-28T09:12:55;35.61;33.45;49.71;;
67398;Laerm;57728;50.448;18.824;2023-07-28T09:14:57;38.25;33.38;60.56;;
67398;Laerm;57728;50.448;18.824;2023-07-28T09:17:12;37.03;33.55;61.91;;
67398;Laerm;57728;50.448;18.824;2023-07-28T09:19:14;35.02;33.38;44.93;;
67398;Laerm;57728;50.448;18.824;2023-07-28T09:21:20;36.04;33.37;53.03;;
67398;Laerm;57728;50.448;18.824;2023-07-28T09:23:29;35.47;33.25;47.98;;
67398;Laerm;57728;50.448;18.824;2023-07-28T09:25:32;35.41;33.42;54.86;;
67398;Laerm;57728;50.448;18.824;2023-07-28T09:27:38;37.57;33.65;59.42;;
67398;Laerm;57728;50.448;18.824;2023-07-28T09:29:40;38.63;33.79;60.54;;
67398;Laerm;57728;50.448;18.824;2023-07-28T09:31:42;35.51;33.22;51.32;;
67398;Laerm;57728;50.448;18.824;2023-07-28T09:33:44;34.74;33.31;44.03;;
67398;Laerm;57728;50.448;18.824;2023-07-28T09:35:49;34.92;33.23;46.09;;
67398;Laerm;57728;50.448;18.824;2023-07-28T09:37:51;35.07;33.15;47.44;;
67398;Laerm;57728;50.448;18.824;2023-07-28T09:39:54;37.28;33.33;47.83;;
67398;Laerm;57728;50.448;18.824;2023-07-28T09:41:56;36.79;33.20;53.02;;
67398;Laerm;57728;50.448;18.824;2023-07-28T09:44:00;35.43;33.21;50.15;;
67398;Laerm;57728;50.448;18.824;2023-07-28T09:46:08;35.58;33.14;50.54;;
67398;Laerm;57728;50.448;18.824;2023-07-28T09:48:11;36.50;33.36;46.10;;
67398;Laerm;57728;50.448;18.824;2023-07-28T09:50:16;35.68;33.34;42.92;;
67398;Laerm;57728;50.448;18.824;2023-07-28T09:52:24;37.41;33.44;59.01;;
67398;Laerm;57728;50.448;18.824;2023-07-28T09:54:30;34.91;33.16;45.10;;
67398;Laerm;57728;50.448;18.824;2023-07-28T09:56:35;36.04;33.28;48.15;;
67398;Laerm;57728;50.448;18.824;2023-07-28T09:58:44;35.54;33.20;51.09;;
67398;Laerm;57728;50.448;18.824;2023-07-28T10:00:50;38.92;33.24;57.09;;
67398;Laerm;57728;50.448;18.824;2023-07-28T10:02:53;37.56;33.45;60.32;;
67398;Laerm;57728;50.448;18.824;2023-07-28T10:04:56;35.74;33.53;50.53;;
67398;Laerm;57728;50.448;18.824;2023-07-28T10:06:58;35.05;33.20;47.83;;
67398;Laerm;57728;50.448;18.824;2023-07-28T10:09:00;35.95;33.57;50.22;;
67398;Laerm;57728;50.448;18.824;2023-07-28T10:11:02;36.45;33.55;54.10;;
67398;Laerm;57728;50.448;18.824;2023-07-28T10:13:05;35.37;33.34;45.23;;
67398;Laerm;57728;50.448;18.824;2023-07-28T10:15:07;34.87;33.35;44.49;;
67398;Laerm;57728;50.448;18.824;2023-07-28T10:17:16;35.77;33.02;55.54;;
67398;Laerm;57728;50.448;18.824;2023-07-28T10:19:21;34.79;33.38;42.12;;
67398;Laerm;57728;50.448;18.824;2023-07-28T10:21:28;36.11;33.37;52.48;;
67398;Laerm;57728;50.448;18.824;2023-07-28T10:23:35;36.04;33.39;51.74;;
67398;Laerm;57728;50.448;18.824;2023-07-28T10:25:41;35.93;33.32;49.98;;
67398;Laerm;57728;50.448;18.824;2023-07-28T10:27:46;36.31;33.55;51.43;;
67398;Laerm;57728;50.448;18.824;2023-07-28T10:29:59;35.03;33.53;40.15;;
67398;Laerm;57728;50.448;18.824;2023-07-28T10:32:00;36.99;33.35;49.78;;
67398;Laerm;57728;50.448;18.824;2023-07-28T10:34:01;36.61;33.52;55.73;;
67398;Laerm;57728;50.448;18.824;2023-07-28T10:38:34;37.32;33.40;58.21;;
67398;Laerm;57728;50.448;18.824;2023-07-28T10:40:37;35.70;33.27;52.50;;
67398;Laerm;57728;50.448;18.824;2023-07-28T10:42:40;35.08;33.25;47.70;;
67398;Laerm;57728;50.448;18.824;2023-07-28T10:44:41;36.93;33.55;53.11;;
67398;Laerm;57728;50.448;18.824;2023-07-28T10:46:43;36.23;33.52;49.32;;
67398;Laerm;57728;50.448;18.824;2023-07-28T10:48:48;35.66;33.87;51.43;;
67398;Laerm;57728;50.448;18.824;2023-07-28T10:50:49;36.14;33.85;48.65;;
67398;Laerm;57728;50.448;18.824;2023-07-28T10:52:51;36.39;33.52;55.26;;
67398;Laerm;57728;50.448;18.824;2023-07-28T10:54:52;35.44;33.68;43.18;;
67398;Laerm;57728;50.448;18.824;2023-07-28T10:56:53;36.98;33.53;53.41;;
67398;Laerm;57728;50.448;18.824;2023-07-28T10:58:59;36.68;33.60;56.04;;
67398;Laerm;57728;50.448;18.824;2023-07-28T11:01:02;35.69;33.46;51.15;;
67398;Laerm;57728;50.448;18.824;2023-07-28T11:03:03;35.29;33.58;46.88;;
67398;Laerm;57728;50.448;18.824;2023-07-28T11:05:12;36.63;33.45;57.12;;
67398;Laerm;57728;50.448;18.824;2023-07-28T11:10:29;35.77;33.16;50.87;;
67398;Laerm;57728;50.448;18.824;2023-07-28T11:12:32;39.00;33.27;65.85;;
67398;Laerm;57728;50.448;18.824;2023-07-28T11:14:34;35.55;33.55;47.44;;
67398;Laerm;57728;50.448;18.824;2023-07-28T11:16:41;36.49;33.47;55.58;;
67398;Laerm;57728;50.448;18.824;2023-07-28T11:18:43;35.21;33.22;47.96;;
67398;Laerm;57728;50.448;18.824;2023-07-28T11:20:44;35.10;33.51;43.44;;
67398;Laerm;57728;50.448;18.824;2023-07-28T11:24:55;36.83;33.70;56.88;;
67398;Laerm;57728;50.448;18.824;2023-07-28T11:26:57;35.55;33.21;52.12;;
67398;Laerm;57728;50.448;18.824;2023-07-28T11:29:00;36.25;33.45;53.01;;
67398;Laerm;57728;50.448;18.824;2023-07-28T11:31:02;36.49;33.51;51.58;;